Time;durP1;ratioP1;P1;durP2;ratioP2;P2;SDS_P1;SDS_P2;PMS_P1;PMS_P2;Temp;Humidity;BMP_temperature;BMP_pressure;BME280_temperature;BME280_humidity;BME280_pressure;Samples;Min_cycle;Max_cycle;Signal;HPM_P1;HPM_P2
2022/06/15 00:01:37;;;;;;;1.57;1.30;;;;;;;14.56;50.07;101838.66;4980126;28;97659;-45
2022/06/15 00:04:03;;;;;;;3.43;1.07;;;;;;;14.53;50.30;101832.09;4987080;28;97331;-44
2022/06/15 00:06:30;;;;;;;2.70;1.00;;;;;;;14.52;50.28;101833.34;4980021;28;97212;-45
2022/06/15 00:08:58;;;;;;;1.37;1.27;;;;;;;14.48;50.40;101835.56;4981372;28;97344;-49
2022/06/15 00:11:49;;;;;;;1.83;1.43;;;;;;;14.41;51.71;101830.50;4984073;28;96890;-45
2022/06/15 00:14:19;;;;;;;2.83;2.23;;;;;;;14.41;50.46;101835.25;4976294;28;97296;-46
2022/06/15 00:16:45;;;;;;;2.67;2.47;;;;;;;14.38;50.44;101828.69;4981456;28;97360;-45
2022/06/15 00:19:12;;;;;;;2.37;2.27;;;;;;;14.36;50.68;101827.66;4980126;28;96854;-45
2022/06/15 00:21:37;;;;;;;6.80;1.77;;;;;;;14.32;50.66;101824.34;4982798;28;97268;-45
2022/06/15 00:24:03;;;;;;;1.80;1.70;;;;;;;14.31;50.76;101820.81;4982608;28;96890;-45
2022/06/15 00:26:29;;;;;;;1.43;1.33;;;;;;;14.30;50.81;101813.78;4983569;28;98069;-45
2022/06/15 00:28:55;;;;;;;1.30;1.17;;;;;;;14.29;50.73;101812.25;4982283;28;97169;-47
2022/06/15 00:31:20;;;;;;;3.50;1.07;;;;;;;14.26;50.82;101824.28;4980404;28;97373;-46
2022/06/15 00:33:46;;;;;;;1.80;1.20;;;;;;;14.24;50.91;101815.72;4979362;28;97159;-46
2022/06/15 00:36:15;;;;;;;1.00;1.00;;;;;;;14.23;50.93;101814.94;4983500;28;98471;-45
2022/06/15 00:38:45;;;;;;;4.53;1.57;;;;;;;14.20;51.06;101820.69;4988346;28;97191;-45
2022/06/15 00:41:14;;;;;;;1.37;1.27;;;;;;;14.16;50.99;101814.63;4988412;28;96955;-47
2022/06/15 00:43:43;;;;;;;4.30;1.53;;;;;;;14.12;50.80;101822.38;4987916;28;98502;-47
2022/06/15 00:46:18;;;;;;;3.63;1.30;;;;;;;14.02;52.10;101823.78;4986475;28;97334;-45
2022/06/15 00:48:46;;;;;;;2.40;1.50;;;;;;;13.91;51.17;101827.19;4988753;28;97518;-47
2022/06/15 00:51:13;;;;;;;2.60;1.30;;;;;;;13.83;51.39;101822.56;4985388;28;96868;-45
2022/06/15 00:53:39;;;;;;;3.47;1.10;;;;;;;13.78;51.38;101826.03;4989403;28;97201;-44
2022/06/15 00:56:06;;;;;;;2.40;1.40;;;;;;;13.73;51.27;101823.97;4984499;28;97474;-48
2022/06/15 00:58:32;;;;;;;2.00;1.20;;;;;;;13.64;51.51;101816.56;4989035;28;97505;-45
2022/06/15 01:00:57;;;;;;;1.73;1.60;;;;;;;13.62;51.62;101818.31;4990790;28;97066;-45
2022/06/15 01:03:23;;;;;;;1.10;1.10;;;;;;;13.62;51.42;101808.00;4987537;28;97053;-46
2022/06/15 01:06:05;;;;;;;1.63;1.20;;;;;;;13.64;52.24;101818.56;4988569;28;97412;-46
2022/06/15 01:09:04;;;;;;;1.27;1.17;;;;;;;13.60;52.88;101818.03;4987197;28;97410;-48
2022/06/15 01:11:52;;;;;;;1.47;1.37;;;;;;;13.60;51.64;101820.78;4964385;28;97046;-46
2022/06/15 01:14:55;;;;;;;1.20;1.10;;;;;;;13.57;52.63;101813.44;4977333;28;98743;-45
2022/06/15 01:17:46;;;;;;;1.20;1.20;;;;;;;13.50;52.79;101811.88;4980934;28;101832;-45
2022/06/15 01:20:42;;;;;;;1.90;1.30;;;;;;;13.47;52.51;101815.63;4990041;28;100119;-45
2022/06/15 01:23:32;;;;;;;2.53;1.17;;;;;;;13.46;52.01;101811.31;4988526;28;97368;-45
2022/06/15 01:26:12;;;;;;;1.93;1.17;;;;;;;13.42;52.37;101805.25;4989445;28;96749;-47
2022/06/15 01:28:50;;;;;;;1.63;1.53;;;;;;;13.39;51.71;101806.97;4986552;28;101927;-47
2022/06/15 01:31:36;;;;;;;2.00;1.00;;;;;;;13.38;52.61;101807.47;4986411;28;97353;-46
2022/06/15 01:34:37;;;;;;;1.10;0.93;;;;;;;13.34;52.60;101802.16;4986656;28;97290;-46
2022/06/15 01:37:24;;;;;;;2.93;1.43;;;;;;;13.30;52.25;101806.34;4983107;28;97495;-47
2022/06/15 01:39:58;;;;;;;2.47;1.50;;;;;;;13.25;51.83;101807.81;4988758;28;101867;-47
2022/06/15 01:42:36;;;;;;;1.33;1.23;;;;;;;13.21;52.60;101814.78;4986896;28;98224;-46
2022/06/15 01:45:07;;;;;;;2.20;1.40;;;;;;;13.16;52.08;101807.94;4988573;28;97187;-46
2022/06/15 01:47:36;;;;;;;1.40;1.30;;;;;;;13.13;52.10;101802.59;4984773;28;97171;-46
2022/06/15 01:50:10;;;;;;;1.43;1.33;;;;;;;13.11;52.42;101816.13;4986324;28;97353;-46
2022/06/15 01:52:50;;;;;;;1.30;1.20;;;;;;;13.06;52.94;101809.28;4980720;28;97552;-47
2022/06/15 01:55:22;;;;;;;1.30;1.20;;;;;;;13.03;52.24;101813.00;4987355;28;96897;-46
2022/06/15 01:57:52;;;;;;;1.27;1.17;;;;;;;13.02;52.15;101805.19;4981153;28;97070;-46
2022/06/15 02:00:18;;;;;;;1.50;1.40;;;;;;;12.99;52.15;101801.38;4982637;28;97809;-46
2022/06/15 02:03:12;;;;;;;1.63;1.20;;;;;;;12.98;53.07;101799.84;4984758;28;96998;-46
2022/06/15 02:05:52;;;;;;;1.07;1.03;;;;;;;12.96;52.30;101805.09;4987582;28;97128;-50
2022/06/15 02:08:26;;;;;;;1.20;1.20;;;;;;;12.95;52.44;101798.06;4982614;28;97215;-46
2022/06/15 02:11:02;;;;;;;1.33;1.23;;;;;;;12.93;52.61;101803.28;4980203;28;97025;-46
2022/06/15 02:13:46;;;;;;;1.53;1.17;;;;;;;12.89;52.60;101799.97;4985976;28;98751;-46
2022/06/15 02:16:18;;;;;;;1.30;1.30;;;;;;;12.85;52.29;101796.66;4975836;28;97306;-46
2022/06/15 02:18:48;;;;;;;1.53;1.20;;;;;;;12.79;52.19;101801.34;4983823;28;97210;-46
2022/06/15 02:21:18;;;;;;;2.50;1.23;;;;;;;12.71;52.58;101797.47;4986950;28;97325;-46
2022/06/15 02:23:47;;;;;;;1.50;1.20;;;;;;;12.66;52.31;101795.38;4982764;28;97358;-46
2022/06/15 02:26:15;;;;;;;1.57;1.40;;;;;;;12.59;52.41;101793.75;4981950;28;96748;-46
2022/06/15 02:28:45;;;;;;;0.90;0.90;;;;;;;12.56;52.71;101785.66;4982387;28;97127;-46
2022/06/15 02:31:10;;;;;;;1.40;1.30;;;;;;;12.51;52.64;101789.09;4981800;28;97880;-46
2022/06/15 02:33:46;;;;;;;2.77;1.33;;;;;;;12.50;53.44;101793.09;4984770;28;98499;-46
2022/06/15 02:36:11;;;;;;;1.90;1.10;;;;;;;12.45;52.64;101793.78;4984465;28;97929;-46
2022/06/15 02:38:37;;;;;;;2.33;1.33;;;;;;;12.43;52.78;101782.44;4982370;28;97169;-47
2022/06/15 02:41:02;;;;;;;1.47;1.37;;;;;;;12.44;52.73;101789.47;4985627;28;96873;-46
2022/06/15 02:43:31;;;;;;;2.47;0.87;;;;;;;12.41;52.84;101784.91;4984438;28;98344;-46
2022/06/15 02:45:59;;;;;;;1.10;1.10;;;;;;;12.41;52.69;101776.63;4983766;28;97235;-46
2022/06/15 02:48:25;;;;;;;1.37;1.27;;;;;;;12.41;52.80;101782.91;4985244;28;97533;-46
2022/06/15 02:50:51;;;;;;;1.27;0.97;;;;;;;12.43;52.76;101779.66;4981366;28;98655;-46
2022/06/15 02:53:21;;;;;;;2.53;1.50;;;;;;;12.43;52.91;101779.66;4985654;28;97270;-46
2022/06/15 02:55:48;;;;;;;2.80;1.20;;;;;;;12.42;52.98;101780.91;4985574;28;97155;-46
2022/06/15 02:58:22;;;;;;;1.20;1.20;;;;;;;12.41;53.12;101777.41;4986477;28;96986;-46
2022/06/15 03:00:47;;;;;;;1.67;1.20;;;;;;;12.42;52.91;101769.88;4984843;28;97525;-46
2022/06/15 03:03:13;;;;;;;1.13;1.13;;;;;;;12.43;52.96;101774.16;4983891;28;97311;-46
2022/06/15 03:05:41;;;;;;;1.03;1.03;;;;;;;12.39;52.79;101779.09;4984587;28;97107;-47
2022/06/15 03:08:06;;;;;;;1.63;1.27;;;;;;;12.41;52.99;101773.88;4979305;28;96946;-46
2022/06/15 03:10:32;;;;;;;2.70;1.73;;;;;;;12.37;53.03;101770.53;4983220;28;97953;-46
2022/06/15 03:12:57;;;;;;;1.53;1.37;;;;;;;12.36;52.82;101766.28;4981517;28;97281;-46
2022/06/15 03:15:22;;;;;;;1.10;1.00;;;;;;;12.34;52.96;101766.75;4982293;28;97074;-46
2022/06/15 03:17:51;;;;;;;2.40;1.50;;;;;;;12.35;52.98;101764.75;4983939;28;97450;-46
2022/06/15 03:20:16;;;;;;;1.10;0.97;;;;;;;12.31;53.15;101770.47;4983213;28;97545;-46
2022/06/15 03:22:42;;;;;;;1.10;1.10;;;;;;;12.27;53.20;101769.91;4979869;28;98800;-46
2022/06/15 03:25:08;;;;;;;2.13;1.40;;;;;;;12.23;53.21;101766.56;4973292;28;97254;-46
2022/06/15 03:27:33;;;;;;;1.53;1.43;;;;;;;12.20;53.19;101770.28;4981031;28;97323;-47
2022/06/15 03:30:00;;;;;;;1.70;1.60;;;;;;;12.20;53.17;101766.75;4981077;28;97040;-47
2022/06/15 03:32:25;;;;;;;1.67;1.33;;;;;;;12.17;53.38;101770.44;4980085;28;98352;-46
2022/06/15 03:34:51;;;;;;;1.67;1.47;;;;;;;12.14;53.23;101774.19;4982671;28;97039;-44
2022/06/15 03:37:16;;;;;;;1.60;1.50;;;;;;;12.13;53.38;101775.41;4982202;28;96996;-45
2022/06/15 03:39:41;;;;;;;4.67;1.40;;;;;;;12.12;53.45;101771.91;4980562;28;97379;-48
2022/06/15 03:42:15;;;;;;;1.33;1.20;;;;;;;12.13;53.96;101769.88;4973154;28;98158;-46
2022/06/15 03:44:41;;;;;;;1.40;1.30;;;;;;;12.11;53.51;101769.59;4980091;28;96931;-50
2022/06/15 03:47:28;;;;;;;1.57;1.47;;;;;;;12.13;53.48;101765.13;4975983;28;97112;-48
2022/06/15 03:49:54;;;;;;;1.10;0.97;;;;;;;12.12;53.38;101760.09;4971731;28;96887;-47
2022/06/15 03:52:23;;;;;;;1.63;1.00;;;;;;;12.14;53.44;101766.69;4970721;28;97582;-46
2022/06/15 03:54:48;;;;;;;1.13;1.10;;;;;;;12.14;53.56;101766.69;4976973;28;97205;-45
2022/06/15 03:57:17;;;;;;;1.43;1.33;;;;;;;12.15;53.71;101762.66;4980365;28;97229;-44
2022/06/15 03:59:43;;;;;;;1.77;1.30;;;;;;;12.12;53.79;101751.84;4967359;28;101747;-46
2022/06/15 04:02:09;;;;;;;1.10;1.10;;;;;;;12.15;53.77;101762.66;4978738;28;97766;-45
2022/06/15 04:04:34;;;;;;;1.80;0.90;;;;;;;12.16;53.91;101758.69;4981237;28;96817;-45
2022/06/15 04:07:00;;;;;;;1.20;1.10;;;;;;;12.16;53.99;101761.44;4977661;28;97229;-45
2022/06/15 04:09:27;;;;;;;1.20;1.10;;;;;;;12.21;53.98;101757.25;4976570;28;98582;-46
2022/06/15 04:12:01;;;;;;;1.40;1.30;;;;;;;12.25;53.99;101749.53;4974573;28;97435;-45
2022/06/15 04:14:30;;;;;;;1.43;1.20;;;;;;;12.24;54.22;101759.81;4980544;28;96942;-45
2022/06/15 04:16:56;;;;;;;1.73;1.37;;;;;;;12.29;54.27;101755.63;4980477;28;96933;-47
2022/06/15 04:19:27;;;;;;;1.20;0.90;;;;;;;12.30;54.26;101752.38;4977467;28;97737;-45
2022/06/15 04:21:53;;;;;;;1.40;1.30;;;;;;;12.37;54.33;101754.00;4979470;28;98745;-47
2022/06/15 04:24:21;;;;;;;2.10;0.83;;;;;;;12.44;54.29;101753.59;4976799;28;96972;-45
2022/06/15 04:26:47;;;;;;;1.77;1.40;;;;;;;12.51;54.35;101753.22;4980559;28;97748;-45
2022/06/15 04:29:14;;;;;;;1.77;1.67;;;;;;;12.59;54.62;101746.06;4975235;28;97094;-46
2022/06/15 04:31:40;;;;;;;1.10;1.10;;;;;;;12.68;54.48;101759.75;4978790;28;96994;-45
2022/06/15 04:34:07;;;;;;;1.30;1.20;;;;;;;12.75;54.33;101751.81;4980549;28;96666;-46
2022/06/15 04:36:33;;;;;;;2.50;1.20;;;;;;;12.86;54.31;101751.22;4982240;28;97312;-45
2022/06/15 04:38:58;;;;;;;0.97;0.97;;;;;;;12.93;54.35;101750.81;4975794;28;97133;-48
2022/06/15 04:41:24;;;;;;;1.20;1.10;;;;;;;13.03;54.33;101746.69;4977852;28;97302;-45
2022/06/15 04:43:49;;;;;;;1.47;1.23;;;;;;;13.14;54.44;101757.16;4979776;28;97165;-45
2022/06/15 04:46:15;;;;;;;1.30;1.20;;;;;;;13.21;54.41;101751.22;4980349;28;97397;-46
2022/06/15 04:48:41;;;;;;;2.20;1.07;;;;;;;13.26;54.53;101742.97;4982762;28;97105;-46
2022/06/15 04:51:12;;;;;;;3.33;1.23;;;;;;;13.35;54.86;101751.13;4978404;28;97183;-47
2022/06/15 04:53:37;;;;;;;1.30;1.20;;;;;;;13.37;54.31;101743.13;4978481;28;96934;-46
2022/06/15 04:56:03;;;;;;;1.10;1.10;;;;;;;13.42;54.59;101750.72;4973863;28;97360;-46
2022/06/15 04:58:28;;;;;;;1.27;1.10;;;;;;;13.47;54.70;101744.50;4983563;28;99847;-45
2022/06/15 05:00:53;;;;;;;1.17;1.00;;;;;;;13.52;54.73;101749.31;4977197;28;97108;-47
2022/06/15 05:03:20;;;;;;;1.30;1.00;;;;;;;13.59;54.71;101744.59;4981717;28;96999;-46
2022/06/15 05:05:45;;;;;;;3.40;1.00;;;;;;;13.68;54.87;101752.75;4975457;28;97199;-46
2022/06/15 05:08:10;;;;;;;2.10;1.20;;;;;;;13.80;55.02;101751.63;4980213;28;97513;-47
2022/06/15 05:10:36;;;;;;;1.40;1.30;;;;;;;13.92;54.93;101747.72;4978717;28;96749;-47
2022/06/15 05:13:01;;;;;;;1.13;1.13;;;;;;;14.03;55.16;101750.59;4976446;28;97034;-47
2022/06/15 05:15:27;;;;;;;1.33;1.23;;;;;;;14.16;55.19;101753.72;4977001;28;97425;-46
2022/06/15 05:17:52;;;;;;;1.37;1.10;;;;;;;14.28;55.22;101758.84;4976950;28;97341;-45
2022/06/15 05:20:18;;;;;;;1.80;0.90;;;;;;;14.41;55.14;101761.28;4977194;28;97779;-46
2022/06/15 05:22:50;;;;;;;0.80;0.80;;;;;;;14.55;55.75;101754.81;4976072;28;97266;-45
2022/06/15 05:25:15;;;;;;;1.40;1.33;;;;;;;14.66;55.32;101749.34;4984332;28;97147;-46
2022/06/15 05:27:41;;;;;;;2.53;1.00;;;;;;;14.78;55.25;101753.72;4978970;28;97811;-46
2022/06/15 05:30:07;;;;;;;2.03;1.00;;;;;;;14.92;55.45;101757.56;4983210;28;101222;-46
2022/06/15 05:32:33;;;;;;;1.13;1.13;;;;;;;15.07;55.43;101749.09;4982919;28;97331;-46
2022/06/15 05:35:00;;;;;;;0.60;0.60;;;;;;;15.21;55.52;101756.44;4980079;28;96877;-48
2022/06/15 05:37:28;;;;;;;2.37;1.07;;;;;;;15.36;55.49;101757.00;4981013;28;97397;-46
2022/06/15 05:39:53;;;;;;;1.10;0.90;;;;;;;15.50;55.33;101764.41;4982068;28;97684;-45
2022/06/15 05:42:19;;;;;;;2.20;1.00;;;;;;;15.64;55.32;101760.66;4982058;28;97659;-47
2022/06/15 05:47:11;;;;;;;1.67;1.10;;;;;;;15.93;55.49;101759.47;4980148;28;97342;-46
2022/06/15 05:49:37;;;;;;;2.07;0.87;;;;;;;16.08;55.28;101754.41;4980945;28;98507;-47
2022/06/15 05:52:03;;;;;;;2.50;1.10;;;;;;;16.22;55.22;101756.97;4982373;28;97141;-47
2022/06/15 05:54:28;;;;;;;1.20;1.10;;;;;;;16.37;55.06;101756.72;4984100;28;97027;-46
2022/06/15 05:56:53;;;;;;;1.40;1.30;;;;;;;16.52;55.08;101748.13;4979488;28;97167;-47
2022/06/15 05:59:19;;;;;;;1.23;0.80;;;;;;;16.66;54.82;101749.91;4986447;28;97307;-47
2022/06/15 06:01:45;;;;;;;3.33;0.80;;;;;;;16.81;54.70;101753.91;4982669;28;97317;-46
2022/06/15 06:04:18;;;;;;;1.33;0.80;;;;;;;16.97;55.00;101755.13;4980210;28;97361;-47
2022/06/15 06:06:44;;;;;;;1.37;0.80;;;;;;;17.11;54.44;101752.03;4973662;28;100170;-47
2022/06/15 06:09:12;;;;;;;3.40;1.10;;;;;;;17.26;54.25;101754.50;4976817;28;97416;-47
2022/06/15 06:11:38;;;;;;;1.37;1.20;;;;;;;17.43;54.14;101751.66;4975385;28;97438;-46
2022/06/15 06:14:04;;;;;;;0.80;0.80;;;;;;;17.59;53.98;101754.38;4989162;28;96792;-46
2022/06/15 06:16:29;;;;;;;0.60;0.60;;;;;;;17.72;53.53;101749.00;4981591;28;97285;-47
2022/06/15 06:18:55;;;;;;;1.30;0.93;;;;;;;17.83;53.37;101748.94;4983159;28;97392;-45
2022/06/15 06:21:21;;;;;;;1.60;0.70;;;;;;;17.94;53.47;101753.66;4987361;28;97212;-47
2022/06/15 06:23:47;;;;;;;4.03;0.93;;;;;;;18.06;53.09;101746.75;4987206;28;97058;-47
2022/06/15 06:26:23;;;;;;;1.63;0.90;;;;;;;18.19;52.98;101748.91;4983024;28;97097;-47
2022/06/15 06:28:50;;;;;;;1.23;1.10;;;;;;;18.29;52.79;101755.66;4984441;28;97230;-45
2022/06/15 06:31:16;;;;;;;3.23;0.73;;;;;;;18.40;52.73;101750.00;4983570;28;97439;-48
2022/06/15 06:33:41;;;;;;;1.77;0.80;;;;;;;18.46;52.44;101747.94;4979693;28;97093;-47
2022/06/15 06:36:24;;;;;;;1.13;0.83;;;;;;;18.57;51.91;101745.03;4989364;28;97295;-47
2022/06/15 06:38:49;;;;;;;2.03;1.03;;;;;;;18.65;52.24;101743.22;4987470;28;96957;-47
2022/06/15 06:41:20;;;;;;;1.83;0.90;;;;;;;18.70;51.44;101736.81;4976318;28;97279;-47
2022/06/15 06:43:46;;;;;;;2.17;0.80;;;;;;;18.81;51.64;101742.25;4987424;28;96923;-47
2022/06/15 06:46:12;;;;;;;2.60;1.10;;;;;;;18.91;51.72;101743.44;4979866;28;97335;-46
2022/06/15 06:48:37;;;;;;;1.30;0.77;;;;;;;19.01;51.56;101747.38;4980054;28;97115;-46
2022/06/15 06:51:03;;;;;;;0.97;0.73;;;;;;;19.10;51.28;101741.44;4979374;28;96839;-47
2022/06/15 06:53:29;;;;;;;0.90;0.80;;;;;;;19.18;51.04;101747.16;4979690;28;96757;-46
2022/06/15 06:56:09;;;;;;;2.73;1.03;;;;;;;19.28;50.70;101748.31;4983438;28;97458;-45
2022/06/15 06:58:35;;;;;;;1.43;0.80;;;;;;;19.35;50.67;101747.75;4984801;28;97260;-46
2022/06/15 07:01:00;;;;;;;1.33;0.77;;;;;;;19.43;50.48;101746.63;4979948;28;97258;-47
2022/06/15 07:03:26;;;;;;;0.70;0.70;;;;;;;19.52;50.45;101739.91;4979173;28;97038;-47
2022/06/15 07:05:51;;;;;;;2.03;0.80;;;;;;;19.65;50.35;101747.59;4978612;28;97559;-47
2022/06/15 07:08:17;;;;;;;1.27;0.80;;;;;;;19.74;49.80;101755.59;4978158;28;96730;-47
2022/06/15 07:10:43;;;;;;;2.63;1.10;;;;;;;19.83;49.74;101749.63;4979721;28;97339;-47
2022/06/15 07:13:09;;;;;;;1.10;0.73;;;;;;;19.92;49.70;101747.19;4978720;28;97224;-46
2022/06/15 07:15:35;;;;;;;2.37;0.87;;;;;;;20.04;49.27;101744.97;4978540;28;97984;-47
2022/06/15 07:18:01;;;;;;;2.47;0.77;;;;;;;20.13;48.73;101741.78;4980261;28;96880;-47
2022/06/15 07:20:29;;;;;;;2.10;1.00;;;;;;;20.25;48.62;101743.13;4986373;28;96851;-47
2022/06/15 07:22:55;;;;;;;4.90;0.80;;;;;;;20.33;48.22;101738.44;4976471;28;97868;-48
2022/06/15 07:25:21;;;;;;;2.07;0.70;;;;;;;20.42;48.37;101743.59;4979934;28;96753;-46
2022/06/15 07:27:47;;;;;;;3.33;1.27;;;;;;;20.53;48.29;101734.25;4976160;28;98469;-46
2022/06/15 07:30:16;;;;;;;1.00;0.70;;;;;;;20.61;47.86;101730.28;4976782;28;97172;-45
2022/06/15 07:32:42;;;;;;;3.10;0.93;;;;;;;20.69;47.67;101733.94;4981682;28;96980;-47
2022/06/15 07:35:15;;;;;;;2.30;0.80;;;;;;;20.78;47.05;101730.72;4975168;28;98619;-47
2022/06/15 07:37:40;;;;;;;2.27;1.07;;;;;;;20.88;47.47;101731.06;4979720;28;99252;-45
2022/06/15 07:40:06;;;;;;;5.00;0.80;;;;;;;21.01;47.36;101738.69;4981517;28;97315;-46
2022/06/15 07:42:31;;;;;;;1.87;1.00;;;;;;;21.10;46.91;101735.50;4983023;28;97008;-47
2022/06/15 07:44:56;;;;;;;1.80;0.70;;;;;;;21.18;46.69;101730.72;4974109;28;97459;-47
2022/06/15 07:50:07;;;;;;;1.10;0.83;;;;;;;21.45;46.38;101732.16;4978413;28;97249;-47
2022/06/15 07:52:36;;;;;;;0.83;0.80;;;;;;;21.56;45.57;101732.69;4974802;28;97086;-47
2022/06/15 07:55:04;;;;;;;1.20;0.77;;;;;;;21.64;45.65;101732.78;4978120;28;98768;-47
2022/06/15 07:57:29;;;;;;;3.10;1.00;;;;;;;21.73;45.82;101731.56;4976549;28;97609;-46
2022/06/15 07:59:55;;;;;;;1.80;0.80;;;;;;;21.84;45.61;101732.06;4980017;28;96959;-46
2022/06/15 08:02:20;;;;;;;1.63;1.00;;;;;;;21.95;45.04;101737.41;4982188;28;97264;-46
2022/06/15 08:04:46;;;;;;;1.50;0.73;;;;;;;22.02;44.98;101731.13;4979072;28;99828;-47
2022/06/15 08:07:14;;;;;;;8.13;1.13;;;;;;;22.10;44.41;101734.00;4971571;28;98483;-46
2022/06/15 08:09:41;;;;;;;1.10;0.77;;;;;;;22.19;44.33;101737.06;4978082;28;96879;-47
2022/06/15 08:12:19;;;;;;;2.00;0.80;;;;;;;22.25;44.32;101729.28;4977736;28;96927;-46
2022/06/15 08:14:53;;;;;;;2.70;1.17;;;;;;;22.34;44.14;101731.56;4975846;28;97127;-47
2022/06/15 08:17:26;;;;;;;1.03;0.70;;;;;;;22.41;43.49;101732.22;4975963;28;97242;-47
2022/06/15 08:20:02;;;;;;;1.43;0.97;;;;;;;22.48;43.06;101732.25;4979067;28;97451;-47
2022/06/15 08:22:28;;;;;;;3.53;0.97;;;;;;;22.56;43.42;101732.31;4980145;28;97302;-47
2022/06/15 08:24:54;;;;;;;0.73;0.53;;;;;;;22.64;43.27;101722.66;4979055;28;97065;-47
2022/06/15 08:27:22;;;;;;;1.40;0.90;;;;;;;22.77;43.27;101728.19;4976188;28;97376;-47
2022/06/15 08:29:48;;;;;;;2.77;1.30;;;;;;;22.87;43.26;101729.16;4975003;28;96765;-47
2022/06/15 08:32:15;;;;;;;1.37;1.00;;;;;;;22.92;42.73;101721.88;4980269;28;96769;-48
2022/06/15 08:34:41;;;;;;;1.33;1.00;;;;;;;23.02;42.47;101731.31;4976915;28;97081;-48
2022/06/15 08:37:10;;;;;;;1.40;0.80;;;;;;;23.09;42.40;101725.72;4979356;28;97744;-47
2022/06/15 08:39:36;;;;;;;1.47;0.70;;;;;;;23.20;41.88;101727.44;4978072;28;97158;-47
2022/06/15 08:42:21;;;;;;;1.20;0.90;;;;;;;23.30;41.47;101727.69;4980226;28;97175;-48
2022/06/15 08:45:20;;;;;;;1.83;0.80;;;;;;;23.33;40.80;101721.72;4982932;28;97908;-47
2022/06/15 08:48:00;;;;;;;0.77;0.60;;;;;;;23.41;41.80;101727.38;4976627;28;102737;-46
2022/06/15 08:50:50;;;;;;;1.10;0.70;;;;;;;23.49;40.59;101717.66;4979239;28;96820;-48
2022/06/15 08:53:30;;;;;;;2.47;0.80;;;;;;;23.63;40.90;101724.63;4978936;28;97050;-48
2022/06/15 08:56:04;;;;;;;2.80;0.87;;;;;;;23.76;40.77;101706.88;4977582;28;99093;-47
2022/06/15 08:58:45;;;;;;;3.77;1.07;;;;;;;23.92;40.16;101713.25;4981769;28;97157;-48
2022/06/15 09:01:32;;;;;;;1.70;0.83;;;;;;;24.05;40.52;101716.66;4984368;28;97146;-46
2022/06/15 09:04:13;;;;;;;0.63;0.57;;;;;;;24.18;40.20;101705.22;4983853;28;97190;-47
2022/06/15 09:06:59;;;;;;;3.33;0.80;;;;;;;24.33;39.53;101710.09;4986458;28;97951;-48
2022/06/15 09:09:39;;;;;;;3.53;1.13;;;;;;;24.37;39.03;101707.66;4971631;28;102959;-47
2022/06/15 09:15:23;;;;;;;4.20;0.90;;;;;;;24.47;38.12;101706.53;4987443;22;101180;-49
2022/06/15 09:17:52;;;;;;;2.60;0.70;;;;;;;24.50;39.59;101711.03;4963650;28;97507;-49
2022/06/15 09:20:25;;;;;;;1.30;0.87;;;;;;;24.53;36.50;101707.06;4962665;28;97328;-49
2022/06/15 09:22:59;;;;;;;1.40;0.93;;;;;;;24.53;38.72;101703.50;4959953;28;97229;-49
2022/06/15 09:25:34;;;;;;;3.33;0.80;;;;;;;24.64;38.81;101702.38;4970862;28;96944;-49
2022/06/15 09:28:06;;;;;;;1.50;0.97;;;;;;;24.78;38.74;101706.47;4988120;28;100422;-49
2022/06/15 09:30:36;;;;;;;1.70;0.90;;;;;;;24.89;38.95;101695.56;4988747;28;101640;-49
2022/06/15 09:33:09;;;;;;;1.27;0.70;;;;;;;25.06;38.25;101692.88;4988585;28;96718;-49
2022/06/15 09:35:41;;;;;;;1.00;0.60;;;;;;;25.25;38.06;101698.03;4986049;28;96956;-49
2022/06/15 09:38:10;;;;;;;0.83;0.83;;;;;;;25.36;38.04;101696.88;4982137;28;97097;-50
2022/06/15 09:40:43;;;;;;;2.23;0.90;;;;;;;25.56;37.54;101693.00;4982054;28;98305;-49
2022/06/15 09:43:11;;;;;;;1.40;0.70;;;;;;;25.81;37.34;101694.56;4983406;28;96828;-49
2022/06/15 09:45:51;;;;;;;5.90;1.10;;;;;;;25.97;36.48;101687.44;4982884;28;97297;-49
2022/06/15 09:48:24;;;;;;;1.20;0.77;;;;;;;26.19;36.44;101682.97;4983519;28;100613;-49
2022/06/15 09:50:58;;;;;;;1.33;0.80;;;;;;;26.26;36.20;101684.97;4988933;28;101662;-49
2022/06/15 09:54:10;;;;;;;0.93;0.80;;;;;;;26.36;35.30;101682.25;4981104;28;96886;-49
2022/06/15 09:56:36;;;;;;;1.10;0.90;;;;;;;26.38;36.64;101679.59;4963709;28;96875;-49
2022/06/15 09:59:06;;;;;;;1.37;0.80;;;;;;;26.40;36.61;101680.53;4989251;28;98602;-49
2022/06/15 10:01:42;;;;;;;3.07;1.20;;;;;;;26.40;35.44;101676.94;4982098;28;102131;-49
2022/06/15 10:04:16;;;;;;;1.30;0.80;;;;;;;26.36;35.67;101671.72;4980912;28;97191;-50
2022/06/15 10:07:06;;;;;;;1.10;0.80;;;;;;;26.51;34.26;101674.41;4980325;28;97107;-49
2022/06/15 10:09:35;;;;;;;1.80;0.67;;;;;;;26.65;36.49;101678.38;4981475;28;97710;-49
2022/06/15 10:15:18;;;;;;;1.03;0.80;;;;;;;26.73;36.15;101673.41;4974394;28;97163;-49
2022/06/15 10:17:51;;;;;;;1.63;1.23;;;;;;;26.83;35.07;101678.38;4990791;28;96997;-49
2022/06/15 10:20:38;;;;;;;1.20;0.73;;;;;;;26.85;34.90;101681.38;4976244;28;100722;-48
2022/06/15 10:23:14;;;;;;;1.13;0.73;;;;;;;26.94;35.17;101675.81;4980689;28;100311;-48
2022/06/15 10:25:51;;;;;;;3.20;1.00;;;;;;;27.07;34.88;101669.03;4981212;28;96886;-48
2022/06/15 10:28:22;;;;;;;2.70;1.00;;;;;;;27.24;35.20;101677.47;4977656;28;97129;-49
2022/06/15 10:30:57;;;;;;;2.50;0.87;;;;;;;27.29;34.61;101674.41;4978185;28;97209;-49
2022/06/15 10:33:23;;;;;;;1.33;0.90;;;;;;;27.36;35.14;101673.59;4982074;28;97143;-48
2022/06/15 10:35:56;;;;;;;1.53;1.03;;;;;;;27.36;34.19;101664.34;4984240;28;97479;-48
2022/06/15 10:38:23;;;;;;;1.20;1.07;;;;;;;27.27;34.73;101665.78;4983548;28;99173;-49
2022/06/15 10:40:58;;;;;;;2.00;1.10;;;;;;;27.25;34.43;101664.84;4983241;28;98650;-48
2022/06/15 10:43:28;;;;;;;3.37;1.20;;;;;;;27.29;34.11;101660.28;4976811;28;97621;-49
2022/06/15 10:45:59;;;;;;;0.70;0.60;;;;;;;27.28;34.43;101672.91;4982391;28;96990;-49
2022/06/15 10:48:31;;;;;;;1.80;1.10;;;;;;;27.19;34.38;101659.47;4979031;28;97028;-49
2022/06/15 10:51:10;;;;;;;1.30;1.07;;;;;;;27.14;33.66;101668.97;4977910;28;97042;-49
2022/06/15 10:53:50;;;;;;;1.90;0.90;;;;;;;27.20;33.60;101663.03;4982306;28;98663;-49
2022/06/15 11:02:29;;;;;;;1.10;0.80;;;;;;;27.51;34.28;101654.91;4979353;28;100554;-49
2022/06/15 11:05:06;;;;;;;1.23;0.97;;;;;;;27.55;32.67;101644.66;4978428;28;101626;-49
2022/06/15 11:07:40;;;;;;;1.93;1.10;;;;;;;27.53;33.50;101636.00;4976509;28;96940;-49
2022/06/15 11:10:27;;;;;;;2.73;1.20;;;;;;;27.57;32.93;101633.50;4980181;28;97027;-50
2022/06/15 11:13:31;;;;;;;2.37;1.00;;;;;;;27.76;32.90;101627.91;4975755;28;97053;-48
2022/06/15 11:18:46;;;;;;;1.87;0.70;;;;;;;27.84;33.09;101622.88;4983057;28;96810;-53
2022/06/15 11:21:25;;;;;;;1.40;1.00;;;;;;;27.88;32.77;101620.34;4979237;28;97167;-49
2022/06/15 11:24:21;;;;;;;1.77;0.83;;;;;;;28.01;32.54;101614.31;4979218;28;102483;-49
2022/06/15 11:27:00;;;;;;;2.70;1.10;;;;;;;28.09;32.11;101611.31;4978976;28;101843;-49
2022/06/15 11:29:37;;;;;;;1.13;0.87;;;;;;;28.13;32.45;101612.38;4980810;28;97164;-49
2022/06/15 11:32:15;;;;;;;1.40;0.70;;;;;;;28.26;31.77;101608.38;4979313;28;97044;-49
2022/06/15 11:34:57;;;;;;;1.90;0.80;;;;;;;28.46;32.01;101607.03;4982501;28;97352;-49
2022/06/15 11:37:35;;;;;;;1.77;0.83;;;;;;;28.66;31.70;101593.63;4978806;28;104701;-49
2022/06/15 11:40:34;;;;;;;5.87;1.07;;;;;;;28.81;31.69;101604.66;4983081;28;97192;-51
2022/06/15 11:43:01;;;;;;;3.73;1.50;;;;;;;28.77;32.14;101590.19;4981216;28;96942;-48
2022/06/15 11:45:34;;;;;;;2.20;1.00;;;;;;;28.80;31.47;101597.50;4982767;28;97559;-49
2022/06/15 11:48:02;;;;;;;2.13;1.17;;;;;;;28.94;32.09;101599.25;4975087;28;97622;-49
2022/06/15 11:50:30;;;;;;;1.37;0.93;;;;;;;28.93;31.58;101588.53;4978480;28;96841;-49
2022/06/15 11:53:01;;;;;;;1.93;1.07;;;;;;;28.96;31.08;101586.59;4980455;28;96895;-49
2022/06/15 11:55:39;;;;;;;2.30;0.70;;;;;;;28.90;31.38;101598.22;4981492;28;100276;-49
2022/06/15 11:58:46;;;;;;;1.20;0.80;;;;;;;28.83;31.02;101590.66;4982543;28;98475;-49
2022/06/15 12:01:12;;;;;;;1.97;0.80;;;;;;;28.83;31.86;101582.88;4963417;28;97079;-49
2022/06/15 12:04:02;;;;;;;2.33;0.90;;;;;;;28.97;30.47;101577.47;4982157;28;96986;-49